Phoenix, Arizona
Traffic Map
Current Weather Conditions
Phoenix, Arizona
Overcast
Overcast
66°
Feels Like: 66°
Wind Chill: 66° Ceiling: 14000
Heat Index: 66° Visibility: 10mi
Dew Point: 47° Wind: 0mph
Humidity: 50% Direction: ° ()
Pressure: 30.08in Gusts: 0mph
Raw Report DataKPHX 291751Z 00000KT 10SM BKN140 BKN160 OVC210 19/08 A3008 RMK AO2 SLP174 T01890083 10189 20144 51009
Traffic Incident Summary
Active as of:
Severity:
Category:
InformationThere was an issue retrieving the traffic information for this location. Please try a different location or try again shortly.
Advertisements
Track Severe Weather on mobile